createdAt,value
2018-09-14T00:03:09.951Z,89.30
2018-09-14T00:23:52.295Z,90.03
2018-09-14T00:44:31.916Z,90.17
2018-09-14T01:05:12.971Z,90.86
2018-09-14T01:25:55.500Z,90.94
2018-09-14T01:46:38.565Z,91.80
2018-09-14T02:07:15.687Z,91.36
2018-09-14T02:28:02.405Z,92.71
2018-09-14T02:48:45.587Z,92.88
2018-09-14T03:09:27.921Z,92.74
2018-09-14T03:30:06.884Z,93.10
2018-09-14T03:50:48.300Z,92.92
2018-09-14T04:11:28.485Z,93.73
2018-09-14T04:32:10.144Z,93.92
2018-09-14T04:52:47.017Z,94.17
2018-09-14T05:13:26.857Z,94.20
2018-09-14T05:34:09.850Z,94.05
2018-09-14T05:54:53.112Z,94.60
2018-09-14T06:15:36.381Z,91.70
2018-09-14T06:36:18.904Z,87.62
2018-09-14T06:57:01.972Z,85.65
2018-09-14T07:17:45.228Z,84.80
2018-09-14T07:38:27.824Z,82.20
2018-09-14T07:59:06.835Z,81.38
2018-09-14T08:19:50.096Z,79.54
2018-09-14T08:40:30.865Z,76.07
2018-09-14T09:01:08.626Z,72.70
2018-09-14T09:21:45.125Z,71.41
2018-09-14T09:42:26.234Z,68.67
2018-09-14T10:03:08.576Z,68.71
2018-09-14T10:23:46.611Z,68.49
2018-09-14T10:44:24.038Z,68.94
2018-09-14T11:05:03.855Z,67.20
2018-09-14T11:25:42.586Z,65.65
2018-09-14T11:46:27.173Z,64.45
2018-09-14T12:07:11.239Z,63.33
2018-09-14T12:27:52.654Z,63.58
2018-09-14T12:48:37.765Z,63.10
2018-09-14T13:09:21.015Z,62.17
2018-09-14T13:29:58.438Z,61.89
2018-09-14T13:50:40.973Z,61.67
2018-09-14T14:11:24.037Z,62.47
2018-09-14T14:32:06.379Z,60.50
2018-09-14T14:52:44.413Z,59.50
2018-09-14T15:13:24.907Z,60.36
2018-09-14T15:34:08.785Z,59.65
2018-09-14T15:54:51.428Z,59.15
2018-09-14T16:15:29.772Z,60.83
2018-09-14T16:36:07.811Z,60.42
2018-09-14T16:56:50.724Z,61.95
2018-09-14T17:17:31.573Z,62.21
2018-09-14T17:38:09.016Z,65.20
2018-09-14T17:58:51.329Z,67.37
2018-09-14T18:19:36.755Z,69.03
2018-09-14T18:40:21.838Z,69.62
2018-09-14T19:00:59.877Z,71.63
2018-09-14T19:21:43.444Z,73.32
2018-09-14T19:42:25.781Z,74.70
2018-09-14T20:03:09.340Z,78.20
2018-09-14T20:23:51.381Z,79.04
2018-09-14T20:44:31.568Z,79.79
2018-09-14T21:05:14.142Z,82.11
2018-09-14T21:25:56.442Z,82.90
2018-09-14T21:46:38.585Z,82.76
2018-09-14T22:07:18.773Z,83.72
2018-09-14T22:28:00.473Z,86.15
2018-09-14T22:48:50.515Z,85.15
2018-09-14T23:27:38.516Z,86.76
2018-09-14T23:48:19.626Z,87.18
